Winfield, AL (35594)

7:07 PM CDT on July 29, 2015 (GMT -0500)
Bevill State | | Change Station
CLOSE
Current Station
Personal Weather Station
Location: Fayette, AL
Elevation: 423 ft
Nearby Weather Stations

Elev 423 ft 33.73 °N, 87.82 °W | Updated 7 minutes ago

Clear
Clear
77.1 °F
Feels Like 78 °F
N
0.0
Wind Variable Wind from NNE
Gusts 0.0 mph

Today
High -- | Low -- °F
--% Chance of Precip.
Yesterday
High -- | Low -- °F
Precip. -- in
6:00 AM 7:54 PM
Waxing Gibbous, 97% visible
Pressure 30.07 in
Visibility 7.0 miles
Clouds Clear
Heat Index 78 °F
Dew Point 74 °F
Humidity 91%
Rainfall 0.02 in
Snow Depth Not available.
UV 1 out of 12
Pollen 3.90 out of 12
Air Quality Not available.
Flu Activity Not available.
METAR K1M4 292356Z AUTO 00000KT 7SM CLR 25/25 A3003 RMK AO2 56010 60026 T02500250 10333 20233 SLP181

More Conditions Fewer Conditions

Pressure 30.07 in
Visibility 7.0 miles
Clouds Clear
Heat Index 78 °F
Dew Point 74 °F
Humidity 91%
Rainfall 0.02 in
Snow Depth Not available.
UV 1 out of 12
Pollen 3.90 out of 12
Air Quality Not available.
Flu Activity Not available.
METAR K1M4 292356Z AUTO 00000KT 7SM CLR 25/25 A3003 RMK AO2 56010 60026 T02500250 10333 20233 SLP181

More Conditions Fewer Conditions

10-Day Weather Forecast

×

Almanac

Astronomy

Jul. 29, 2015 Rise Set
Actual Time
Civil Twilight
Nautical Twilight
Astronomical Twilight
Moon
Length of Visible Light
Length of Day
Tomorrow will be .
, % of the Moon is Illuminated

Today's Extremes

State Highs State Lows

Community

WunderPhotos

Upload Photos

1,842,204 photos uploaded!

WunderBlogs® & News

Nearby

Air Quality

  Air Quality AQ Index Pollutant
Not available.

Snow Depth

Station Depth Elevation

Earthquake Activity

City Distance Mag. Time & Date
Minimum magnitude displayed is 2.5.

Coastal Water Temperatures

Place Temperature

Stations

Nearby Weather Stations

Station Location Temp. Windchill Dew Point Humidity Wind Precip. Elev Updated Type